sensor_id;sensor_type;location;lat;lon;timestamp;temperature;humidity
34873;DHT22;21084;51.098;14.506;2023-07-16T00:00:50;21.70;91.10
34873;DHT22;21084;51.098;14.506;2023-07-16T00:03:19;21.60;91.80
34873;DHT22;21084;51.098;14.506;2023-07-16T00:05:51;21.60;92.40
34873;DHT22;21084;51.098;14.506;2023-07-16T00:08:19;21.40;92.90
34873;DHT22;21084;51.098;14.506;2023-07-16T00:10:48;21.30;93.40
34873;DHT22;21084;51.098;14.506;2023-07-16T00:13:16;21.30;94.00
34873;DHT22;21084;51.098;14.506;2023-07-16T00:15:45;21.20;94.30
34873;DHT22;21084;51.098;14.506;2023-07-16T00:18:13;21.10;95.20
34873;DHT22;21084;51.098;14.506;2023-07-16T00:20:42;21.00;95.60
34873;DHT22;21084;51.098;14.506;2023-07-16T00:23:12;20.90;96.20
34873;DHT22;21084;51.098;14.506;2023-07-16T00:25:41;20.80;96.50
34873;DHT22;21084;51.098;14.506;2023-07-16T00:28:10;20.80;96.80
34873;DHT22;21084;51.098;14.506;2023-07-16T00:30:40;20.70;97.00
34873;DHT22;21084;51.098;14.506;2023-07-16T00:33:08;20.70;97.30
34873;DHT22;21084;51.098;14.506;2023-07-16T00:35:37;20.60;98.00
34873;DHT22;21084;51.098;14.506;2023-07-16T00:38:06;20.40;97.90
34873;DHT22;21084;51.098;14.506;2023-07-16T00:40:36;20.40;98.10
34873;DHT22;21084;51.098;14.506;2023-07-16T00:43:05;20.30;98.40
34873;DHT22;21084;51.098;14.506;2023-07-16T00:45:33;20.30;98.40
34873;DHT22;21084;51.098;14.506;2023-07-16T00:48:02;20.30;98.70
34873;DHT22;21084;51.098;14.506;2023-07-16T00:50:32;20.30;98.80
34873;DHT22;21084;51.098;14.506;2023-07-16T00:53:02;20.30;98.80
34873;DHT22;21084;51.098;14.506;2023-07-16T00:55:31;20.30;99.20
34873;DHT22;21084;51.098;14.506;2023-07-16T00:58:03;20.30;99.30
34873;DHT22;21084;51.098;14.506;2023-07-16T01:00:34;20.30;99.20
34873;DHT22;21084;51.098;14.506;2023-07-16T01:03:05;20.20;99.40
34873;DHT22;21084;51.098;14.506;2023-07-16T01:05:36;20.10;99.90
34873;DHT22;21084;51.098;14.506;2023-07-16T01:08:09;20.50;99.40
34873;DHT22;21084;51.098;14.506;2023-07-16T01:10:39;21.10;98.40
34873;DHT22;21084;51.098;14.506;2023-07-16T01:13:11;21.50;97.60
34873;DHT22;21084;51.098;14.506;2023-07-16T01:15:40;21.80;97.20
34873;DHT22;21084;51.098;14.506;2023-07-16T01:18:09;21.90;97.00
34873;DHT22;21084;51.098;14.506;2023-07-16T01:20:38;21.90;96.90
34873;DHT22;21084;51.098;14.506;2023-07-16T01:23:35;22.00;96.90
34873;DHT22;21084;51.098;14.506;2023-07-16T01:26:31;22.00;96.70
34873;DHT22;21084;51.098;14.506;2023-07-16T01:29:27;22.00;96.70
34873;DHT22;21084;51.098;14.506;2023-07-16T01:31:59;22.00;96.80
34873;DHT22;21084;51.098;14.506;2023-07-16T01:34:30;22.00;96.70
34873;DHT22;21084;51.098;14.506;2023-07-16T01:37:01;22.00;96.60
34873;DHT22;21084;51.098;14.506;2023-07-16T01:39:31;22.00;96.60
34873;DHT22;21084;51.098;14.506;2023-07-16T01:42:00;22.00;96.70
34873;DHT22;21084;51.098;14.506;2023-07-16T01:44:29;22.00;96.80
34873;DHT22;21084;51.098;14.506;2023-07-16T01:47:04;21.90;96.90
34873;DHT22;21084;51.098;14.506;2023-07-16T01:49:34;21.90;97.00
34873;DHT22;21084;51.098;14.506;2023-07-16T01:52:04;21.90;97.00
34873;DHT22;21084;51.098;14.506;2023-07-16T01:54:33;21.80;97.10
34873;DHT22;21084;51.098;14.506;2023-07-16T01:57:02;21.80;97.20
34873;DHT22;21084;51.098;14.506;2023-07-16T01:59:32;21.70;97.30
34873;DHT22;21084;51.098;14.506;2023-07-16T02:02:01;21.60;97.40
34873;DHT22;21084;51.098;14.506;2023-07-16T02:04:30;21.60;97.50
34873;DHT22;21084;51.098;14.506;2023-07-16T02:06:59;21.60;97.50
34873;DHT22;21084;51.098;14.506;2023-07-16T02:09:28;21.50;97.70
34873;DHT22;21084;51.098;14.506;2023-07-16T02:11:57;21.50;97.90
34873;DHT22;21084;51.098;14.506;2023-07-16T02:14:26;21.40;98.00
34873;DHT22;21084;51.098;14.506;2023-07-16T02:16:56;21.40;98.10
34873;DHT22;21084;51.098;14.506;2023-07-16T02:19:24;21.40;98.20
34873;DHT22;21084;51.098;14.506;2023-07-16T02:21:54;21.40;98.20
34873;DHT22;21084;51.098;14.506;2023-07-16T02:24:23;21.40;98.30
34873;DHT22;21084;51.098;14.506;2023-07-16T02:26:51;21.40;98.20
34873;DHT22;21084;51.098;14.506;2023-07-16T02:29:20;21.30;98.30
34873;DHT22;21084;51.098;14.506;2023-07-16T02:31:48;21.30;98.30
34873;DHT22;21084;51.098;14.506;2023-07-16T02:34:19;21.30;98.40
34873;DHT22;21084;51.098;14.506;2023-07-16T02:36:48;21.20;98.20
34873;DHT22;21084;51.098;14.506;2023-07-16T02:39:15;21.10;98.60
34873;DHT22;21084;51.098;14.506;2023-07-16T02:41:44;21.10;99.20
34873;DHT22;21084;51.098;14.506;2023-07-16T02:44:13;21.00;98.90
34873;DHT22;21084;51.098;14.506;2023-07-16T02:46:41;21.00;99.00
34873;DHT22;21084;51.098;14.506;2023-07-16T02:49:11;21.00;99.00
34873;DHT22;21084;51.098;14.506;2023-07-16T02:51:41;21.00;99.00
34873;DHT22;21084;51.098;14.506;2023-07-16T02:54:10;21.00;98.90
34873;DHT22;21084;51.098;14.506;2023-07-16T02:56:38;21.10;98.90
34873;DHT22;21084;51.098;14.506;2023-07-16T02:59:07;21.10;98.80
34873;DHT22;21084;51.098;14.506;2023-07-16T03:01:36;21.20;98.70
34873;DHT22;21084;51.098;14.506;2023-07-16T03:04:04;21.20;98.70
34873;DHT22;21084;51.098;14.506;2023-07-16T03:06:33;21.20;98.70
34873;DHT22;21084;51.098;14.506;2023-07-16T03:09:04;21.30;98.70
34873;DHT22;21084;51.098;14.506;2023-07-16T03:11:32;21.30;98.50
34873;DHT22;21084;51.098;14.506;2023-07-16T03:14:01;21.40;98.50
34873;DHT22;21084;51.098;14.506;2023-07-16T03:16:29;21.40;98.40
34873;DHT22;21084;51.098;14.506;2023-07-16T03:18:58;21.40;98.50
34873;DHT22;21084;51.098;14.506;2023-07-16T03:21:30;21.40;98.40
34873;DHT22;21084;51.098;14.506;2023-07-16T03:23:59;21.40;98.40
34873;DHT22;21084;51.098;14.506;2023-07-16T03:26:29;21.40;98.30
34873;DHT22;21084;51.098;14.506;2023-07-16T03:28:57;21.40;98.30
34873;DHT22;21084;51.098;14.506;2023-07-16T03:31:26;21.40;98.40
34873;DHT22;21084;51.098;14.506;2023-07-16T03:33:55;21.40;98.50
34873;DHT22;21084;51.098;14.506;2023-07-16T03:36:24;21.40;98.60
34873;DHT22;21084;51.098;14.506;2023-07-16T03:38:52;21.50;98.00
34873;DHT22;21084;51.098;14.506;2023-07-16T03:41:21;21.50;97.90
34873;DHT22;21084;51.098;14.506;2023-07-16T03:43:51;21.50;98.20
34873;DHT22;21084;51.098;14.506;2023-07-16T03:46:19;21.30;99.50
34873;DHT22;21084;51.098;14.506;2023-07-16T03:48:48;20.90;99.90
34873;DHT22;21084;51.098;14.506;2023-07-16T03:51:16;20.50;99.90
34873;DHT22;21084;51.098;14.506;2023-07-16T03:53:45;20.10;99.90
34873;DHT22;21084;51.098;14.506;2023-07-16T03:56:14;20.00;99.90
34873;DHT22;21084;51.098;14.506;2023-07-16T03:58:42;19.90;99.90
34873;DHT22;21084;51.098;14.506;2023-07-16T04:01:13;19.70;99.90
34873;DHT22;21084;51.098;14.506;2023-07-16T04:03:41;19.60;99.90
34873;DHT22;21084;51.098;14.506;2023-07-16T04:06:10;19.60;99.90
34873;DHT22;21084;51.098;14.506;2023-07-16T04:08:39;19.50;99.90
34873;DHT22;21084;51.098;14.506;2023-07-16T04:11:07;19.50;99.90
34873;DHT22;21084;51.098;14.506;2023-07-16T04:13:36;19.40;99.90
34873;DHT22;21084;51.098;14.506;2023-07-16T04:16:04;19.30;99.90
34873;DHT22;21084;51.098;14.506;2023-07-16T04:18:34;19.30;99.90
34873;DHT22;21084;51.098;14.506;2023-07-16T04:21:02;19.40;99.90
34873;DHT22;21084;51.098;14.506;2023-07-16T04:23:31;19.30;99.90
34873;DHT22;21084;51.098;14.506;2023-07-16T04:25:59;19.30;99.90
34873;DHT22;21084;51.098;14.506;2023-07-16T04:28:28;19.30;99.90
34873;DHT22;21084;51.098;14.506;2023-07-16T04:30:56;19.40;99.90
34873;DHT22;21084;51.098;14.506;2023-07-16T04:33:25;19.40;99.90
34873;DHT22;21084;51.098;14.506;2023-07-16T04:35:55;19.30;99.90
34873;DHT22;21084;51.098;14.506;2023-07-16T04:38:23;19.30;99.90
34873;DHT22;21084;51.098;14.506;2023-07-16T04:40:51;19.30;99.90
34873;DHT22;21084;51.098;14.506;2023-07-16T04:43:20;19.30;99.90
34873;DHT22;21084;51.098;14.506;2023-07-16T04:45:48;19.40;99.90
34873;DHT22;21084;51.098;14.506;2023-07-16T04:48:17;19.30;99.90
34873;DHT22;21084;51.098;14.506;2023-07-16T04:50:45;19.40;99.90
34873;DHT22;21084;51.098;14.506;2023-07-16T04:53:15;19.40;99.90
34873;DHT22;21084;51.098;14.506;2023-07-16T04:55:45;19.40;99.90
34873;DHT22;21084;51.098;14.506;2023-07-16T04:58:14;19.40;99.90
34873;DHT22;21084;51.098;14.506;2023-07-16T05:00:43;19.40;99.90
34873;DHT22;21084;51.098;14.506;2023-07-16T05:03:11;19.40;99.90
34873;DHT22;21084;51.098;14.506;2023-07-16T05:05:40;19.40;99.90
34873;DHT22;21084;51.098;14.506;2023-07-16T05:08:08;19.30;99.90
34873;DHT22;21084;51.098;14.506;2023-07-16T05:10:38;19.30;99.90
34873;DHT22;21084;51.098;14.506;2023-07-16T05:13:06;19.20;99.90
34873;DHT22;21084;51.098;14.506;2023-07-16T05:15:35;19.30;99.90
34873;DHT22;21084;51.098;14.506;2023-07-16T05:18:03;19.20;99.90
34873;DHT22;21084;51.098;14.506;2023-07-16T05:20:32;19.20;99.90
34873;DHT22;21084;51.098;14.506;2023-07-16T05:23:00;19.10;99.90
34873;DHT22;21084;51.098;14.506;2023-07-16T05:25:29;19.10;99.90
34873;DHT22;21084;51.098;14.506;2023-07-16T05:28:00;19.10;99.90
34873;DHT22;21084;51.098;14.506;2023-07-16T05:30:28;19.10;99.90
34873;DHT22;21084;51.098;14.506;2023-07-16T05:32:57;19.20;99.90
34873;DHT22;21084;51.098;14.506;2023-07-16T05:35:26;19.20;99.90
34873;DHT22;21084;51.098;14.506;2023-07-16T05:37:54;19.20;99.90
34873;DHT22;21084;51.098;14.506;2023-07-16T05:40:23;19.30;99.90
34873;DHT22;21084;51.098;14.506;2023-07-16T05:42:51;19.30;99.90
34873;DHT22;21084;51.098;14.506;2023-07-16T05:45:21;19.30;99.90
34873;DHT22;21084;51.098;14.506;2023-07-16T05:47:50;19.30;99.90
34873;DHT22;21084;51.098;14.506;2023-07-16T05:50:19;19.30;99.90
34873;DHT22;21084;51.098;14.506;2023-07-16T05:52:47;19.30;99.90
34873;DHT22;21084;51.098;14.506;2023-07-16T05:55:17;19.30;99.90
34873;DHT22;21084;51.098;14.506;2023-07-16T05:57:45;19.40;99.90
34873;DHT22;21084;51.098;14.506;2023-07-16T06:00:14;19.40;99.90
34873;DHT22;21084;51.098;14.506;2023-07-16T06:02:44;19.40;99.90
34873;DHT22;21084;51.098;14.506;2023-07-16T06:05:12;19.50;99.90
34873;DHT22;21084;51.098;14.506;2023-07-16T06:07:41;19.50;99.90
34873;DHT22;21084;51.098;14.506;2023-07-16T06:10:10;19.50;99.90
34873;DHT22;21084;51.098;14.506;2023-07-16T06:12:38;19.60;99.90
34873;DHT22;21084;51.098;14.506;2023-07-16T06:15:08;19.60;99.90
34873;DHT22;21084;51.098;14.506;2023-07-16T06:17:36;19.60;99.90
34873;DHT22;21084;51.098;14.506;2023-07-16T06:20:08;19.60;99.90
34873;DHT22;21084;51.098;14.506;2023-07-16T06:22:36;19.70;99.90
34873;DHT22;21084;51.098;14.506;2023-07-16T06:25:06;19.70;99.90
34873;DHT22;21084;51.098;14.506;2023-07-16T06:27:37;19.60;99.90
34873;DHT22;21084;51.098;14.506;2023-07-16T06:30:06;19.50;99.90
34873;DHT22;21084;51.098;14.506;2023-07-16T06:32:35;19.70;99.90
34873;DHT22;21084;51.098;14.506;2023-07-16T06:35:06;19.80;99.90
34873;DHT22;21084;51.098;14.506;2023-07-16T06:37:34;19.90;99.90
34873;DHT22;21084;51.098;14.506;2023-07-16T06:40:03;20.00;99.90
34873;DHT22;21084;51.098;14.506;2023-07-16T06:42:32;20.20;99.90
34873;DHT22;21084;51.098;14.506;2023-07-16T06:45:01;20.50;99.90
34873;DHT22;21084;51.098;14.506;2023-07-16T06:47:30;20.80;99.90
34873;DHT22;21084;51.098;14.506;2023-07-16T06:49:58;21.00;99.90
34873;DHT22;21084;51.098;14.506;2023-07-16T06:52:28;21.10;99.90
34873;DHT22;21084;51.098;14.506;2023-07-16T06:54:58;21.30;99.90
34873;DHT22;21084;51.098;14.506;2023-07-16T06:57:26;21.50;99.90
34873;DHT22;21084;51.098;14.506;2023-07-16T06:59:55;21.60;99.90
34873;DHT22;21084;51.098;14.506;2023-07-16T07:02:23;21.80;99.90
34873;DHT22;21084;51.098;14.506;2023-07-16T07:04:52;22.00;99.90
34873;DHT22;21084;51.098;14.506;2023-07-16T07:07:21;22.20;99.90
34873;DHT22;21084;51.098;14.506;2023-07-16T07:09:51;22.50;99.90
34873;DHT22;21084;51.098;14.506;2023-07-16T07:12:19;22.90;99.90
34873;DHT22;21084;51.098;14.506;2023-07-16T07:14:48;23.60;99.90
34873;DHT22;21084;51.098;14.506;2023-07-16T07:17:17;23.80;99.90
34873;DHT22;21084;51.098;14.506;2023-07-16T07:19:45;23.40;99.90
34873;DHT22;21084;51.098;14.506;2023-07-16T07:22:14;23.40;99.90
34873;DHT22;21084;51.098;14.506;2023-07-16T07:24:42;23.10;99.90
34873;DHT22;21084;51.098;14.506;2023-07-16T07:27:13;23.30;99.90
34873;DHT22;21084;51.098;14.506;2023-07-16T07:29:41;23.40;99.90
34873;DHT22;21084;51.098;14.506;2023-07-16T07:32:10;23.20;99.90
34873;DHT22;21084;51.098;14.506;2023-07-16T07:34:39;22.90;99.90
34873;DHT22;21084;51.098;14.506;2023-07-16T07:37:07;23.00;99.90
34873;DHT22;21084;51.098;14.506;2023-07-16T07:39:36;23.00;99.90
34873;DHT22;21084;51.098;14.506;2023-07-16T07:42:06;22.80;99.90
34873;DHT22;21084;51.098;14.506;2023-07-16T07:44:35;22.60;99.90
34873;DHT22;21084;51.098;14.506;2023-07-16T07:47:04;22.70;99.90
34873;DHT22;21084;51.098;14.506;2023-07-16T07:49:34;22.60;99.90
34873;DHT22;21084;51.098;14.506;2023-07-16T07:52:03;22.70;99.90
34873;DHT22;21084;51.098;14.506;2023-07-16T07:54:32;23.10;99.90
34873;DHT22;21084;51.098;14.506;2023-07-16T07:57:01;23.60;99.90
34873;DHT22;21084;51.098;14.506;2023-07-16T07:59:32;23.80;99.90
34873;DHT22;21084;51.098;14.506;2023-07-16T08:02:03;24.20;99.90
34873;DHT22;21084;51.098;14.506;2023-07-16T08:04:32;24.00;99.90
34873;DHT22;21084;51.098;14.506;2023-07-16T08:07:01;23.80;99.90
34873;DHT22;21084;51.098;14.506;2023-07-16T08:09:29;24.20;99.90
34873;DHT22;21084;51.098;14.506;2023-07-16T08:11:58;24.30;99.90
34873;DHT22;21084;51.098;14.506;2023-07-16T08:14:26;24.40;99.60
34873;DHT22;21084;51.098;14.506;2023-07-16T08:16:56;24.30;99.20
34873;DHT22;21084;51.098;14.506;2023-07-16T08:19:26;24.40;99.50
34873;DHT22;21084;51.098;14.506;2023-07-16T08:21:55;24.20;99.00
34873;DHT22;21084;51.098;14.506;2023-07-16T08:24:25;24.00;97.70
34873;DHT22;21084;51.098;14.506;2023-07-16T08:26:53;24.50;98.20
34873;DHT22;21084;51.098;14.506;2023-07-16T08:29:22;23.80;98.10
34873;DHT22;21084;51.098;14.506;2023-07-16T08:31:51;23.80;98.70
34873;DHT22;21084;51.098;14.506;2023-07-16T08:34:19;24.40;97.70
34873;DHT22;21084;51.098;14.506;2023-07-16T08:36:50;24.70;97.40
34873;DHT22;21084;51.098;14.506;2023-07-16T08:39:18;24.90;97.50
34873;DHT22;21084;51.098;14.506;2023-07-16T08:41:49;24.70;96.80
34873;DHT22;21084;51.098;14.506;2023-07-16T08:44:19;25.70;95.60
34873;DHT22;21084;51.098;14.506;2023-07-16T08:46:48;25.90;95.00
34873;DHT22;21084;51.098;14.506;2023-07-16T08:49:18;26.10;94.80
34873;DHT22;21084;51.098;14.506;2023-07-16T08:51:48;26.20;94.70
34873;DHT22;21084;51.098;14.506;2023-07-16T08:54:18;25.50;93.40
34873;DHT22;21084;51.098;14.506;2023-07-16T08:56:47;26.10;95.40
34873;DHT22;21084;51.098;14.506;2023-07-16T08:59:17;27.20;93.40
34873;DHT22;21084;51.098;14.506;2023-07-16T09:01:46;27.10;90.80
34873;DHT22;21084;51.098;14.506;2023-07-16T09:04:16;27.00;91.90
34873;DHT22;21084;51.098;14.506;2023-07-16T09:06:45;27.50;87.90
34873;DHT22;21084;51.098;14.506;2023-07-16T09:09:22;26.50;89.70
34873;DHT22;21084;51.098;14.506;2023-07-16T09:11:51;25.90;88.40
34873;DHT22;21084;51.098;14.506;2023-07-16T09:14:20;24.80;89.60
34873;DHT22;21084;51.098;14.506;2023-07-16T09:16:50;25.90;88.80
34873;DHT22;21084;51.098;14.506;2023-07-16T09:19:19;27.00;86.60
34873;DHT22;21084;51.098;14.506;2023-07-16T09:21:48;27.30;84.30
34873;DHT22;21084;51.098;14.506;2023-07-16T09:24:17;28.00;81.50
34873;DHT22;21084;51.098;14.506;2023-07-16T09:26:50;27.60;79.60
34873;DHT22;21084;51.098;14.506;2023-07-16T09:29:19;27.00;77.30
34873;DHT22;21084;51.098;14.506;2023-07-16T09:31:53;26.90;77.50
34873;DHT22;21084;51.098;14.506;2023-07-16T09:34:23;27.70;77.90
34873;DHT22;21084;51.098;14.506;2023-07-16T09:36:52;28.00;75.40
34873;DHT22;21084;51.098;14.506;2023-07-16T09:39:20;27.00;76.60
34873;DHT22;21084;51.098;14.506;2023-07-16T09:41:51;26.60;76.80
34873;DHT22;21084;51.098;14.506;2023-07-16T09:44:20;25.80;77.80
34873;DHT22;21084;51.098;14.506;2023-07-16T09:46:49;26.00;78.90
34873;DHT22;21084;51.098;14.506;2023-07-16T09:49:18;25.30;80.10
34873;DHT22;21084;51.098;14.506;2023-07-16T09:51:48;25.30;80.90
34873;DHT22;21084;51.098;14.506;2023-07-16T09:54:17;25.50;80.90
34873;DHT22;21084;51.098;14.506;2023-07-16T09:56:48;25.40;81.90
34873;DHT22;21084;51.098;14.506;2023-07-16T09:59:22;25.50;80.80
34873;DHT22;21084;51.098;14.506;2023-07-16T10:01:52;26.00;80.50
34873;DHT22;21084;51.098;14.506;2023-07-16T10:04:22;25.60;80.50
34873;DHT22;21084;51.098;14.506;2023-07-16T10:06:52;25.30;81.20
34873;DHT22;21084;51.098;14.506;2023-07-16T10:09:38;25.40;85.30
34873;DHT22;21084;51.098;14.506;2023-07-16T10:12:18;25.80;81.10
34873;DHT22;21084;51.098;14.506;2023-07-16T10:14:49;26.60;79.90
34873;DHT22;21084;51.098;14.506;2023-07-16T10:17:20;26.50;76.70
34873;DHT22;21084;51.098;14.506;2023-07-16T10:19:50;26.90;75.90
34873;DHT22;21084;51.098;14.506;2023-07-16T10:22:19;28.20;72.90
34873;DHT22;21084;51.098;14.506;2023-07-16T10:24:51;28.10;72.00
34873;DHT22;21084;51.098;14.506;2023-07-16T10:27:28;28.80;70.70
34873;DHT22;21084;51.098;14.506;2023-07-16T10:30:00;29.50;70.80
34873;DHT22;21084;51.098;14.506;2023-07-16T10:32:31;30.40;69.50
34873;DHT22;21084;51.098;14.506;2023-07-16T10:35:01;30.40;66.30
34873;DHT22;21084;51.098;14.506;2023-07-16T10:37:30;30.50;63.40
34873;DHT22;21084;51.098;14.506;2023-07-16T10:40:00;30.10;66.80
34873;DHT22;21084;51.098;14.506;2023-07-16T10:42:31;29.20;65.20
34873;DHT22;21084;51.098;14.506;2023-07-16T10:45:03;28.90;65.40
34873;DHT22;21084;51.098;14.506;2023-07-16T10:47:34;28.30;68.40
34873;DHT22;21084;51.098;14.506;2023-07-16T10:50:04;28.80;68.70
34873;DHT22;21084;51.098;14.506;2023-07-16T10:52:34;28.60;67.40
34873;DHT22;21084;51.098;14.506;2023-07-16T10:55:03;28.50;67.60
34873;DHT22;21084;51.098;14.506;2023-07-16T10:57:32;27.50;70.80
34873;DHT22;21084;51.098;14.506;2023-07-16T11:00:03;29.10;70.20
34873;DHT22;21084;51.098;14.506;2023-07-16T11:02:32;29.70;68.30
34873;DHT22;21084;51.098;14.506;2023-07-16T11:05:00;28.80;67.50
34873;DHT22;21084;51.098;14.506;2023-07-16T11:07:31;28.80;68.40
34873;DHT22;21084;51.098;14.506;2023-07-16T11:09:59;28.30;68.20
34873;DHT22;21084;51.098;14.506;2023-07-16T11:12:30;30.10;66.30
34873;DHT22;21084;51.098;14.506;2023-07-16T11:14:58;30.10;66.30
34873;DHT22;21084;51.098;14.506;2023-07-16T11:17:29;31.30;63.90
34873;DHT22;21084;51.098;14.506;2023-07-16T11:20:00;31.30;60.50
34873;DHT22;21084;51.098;14.506;2023-07-16T11:22:29;30.20;62.90
34873;DHT22;21084;51.098;14.506;2023-07-16T11:24:58;29.50;63.80
34873;DHT22;21084;51.098;14.506;2023-07-16T11:27:31;29.20;67.50
34873;DHT22;21084;51.098;14.506;2023-07-16T11:30:00;29.70;64.90
34873;DHT22;21084;51.098;14.506;2023-07-16T11:32:33;29.40;65.20
34873;DHT22;21084;51.098;14.506;2023-07-16T11:35:05;29.70;65.10
34873;DHT22;21084;51.098;14.506;2023-07-16T11:37:35;29.60;64.60
34873;DHT22;21084;51.098;14.506;2023-07-16T11:40:06;29.90;65.40
34873;DHT22;21084;51.098;14.506;2023-07-16T11:42:36;30.20;63.00
34873;DHT22;21084;51.098;14.506;2023-07-16T11:45:15;31.00;60.40
34873;DHT22;21084;51.098;14.506;2023-07-16T11:47:46;30.70;59.60
34873;DHT22;21084;51.098;14.506;2023-07-16T11:50:15;29.00;62.80
34873;DHT22;21084;51.098;14.506;2023-07-16T11:52:52;29.70;63.90
34873;DHT22;21084;51.098;14.506;2023-07-16T11:55:21;30.10;60.20
34873;DHT22;21084;51.098;14.506;2023-07-16T11:57:50;29.80;60.70
34873;DHT22;21084;51.098;14.506;2023-07-16T12:00:19;30.30;61.90
34873;DHT22;21084;51.098;14.506;2023-07-16T12:02:49;30.80;62.30
34873;DHT22;21084;51.098;14.506;2023-07-16T12:05:20;31.50;59.00
34873;DHT22;21084;51.098;14.506;2023-07-16T12:08:04;29.30;62.00
34873;DHT22;21084;51.098;14.506;2023-07-16T12:10:33;30.50;61.20
34873;DHT22;21084;51.098;14.506;2023-07-16T12:13:01;31.30;60.30
34873;DHT22;21084;51.098;14.506;2023-07-16T12:15:30;31.20;57.30
34873;DHT22;21084;51.098;14.506;2023-07-16T12:18:00;31.90;56.90
34873;DHT22;21084;51.098;14.506;2023-07-16T12:20:30;31.30;57.50
34873;DHT22;21084;51.098;14.506;2023-07-16T12:22:59;32.40;56.20
34873;DHT22;21084;51.098;14.506;2023-07-16T12:25:28;32.80;54.80
34873;DHT22;21084;51.098;14.506;2023-07-16T12:27:57;32.50;55.20
34873;DHT22;21084;51.098;14.506;2023-07-16T12:30:26;32.90;53.60
34873;DHT22;21084;51.098;14.506;2023-07-16T12:32:55;31.40;53.30
34873;DHT22;21084;51.098;14.506;2023-07-16T12:35:25;30.20;58.20
34873;DHT22;21084;51.098;14.506;2023-07-16T12:37:54;30.00;59.30
34873;DHT22;21084;51.098;14.506;2023-07-16T12:40:25;29.30;59.00
34873;DHT22;21084;51.098;14.506;2023-07-16T12:42:54;29.20;59.70
34873;DHT22;21084;51.098;14.506;2023-07-16T12:45:23;29.20;59.70
34873;DHT22;21084;51.098;14.506;2023-07-16T12:47:51;28.80;60.20
34873;DHT22;21084;51.098;14.506;2023-07-16T12:50:20;28.80;59.50
34873;DHT22;21084;51.098;14.506;2023-07-16T12:52:50;29.70;57.30
34873;DHT22;21084;51.098;14.506;2023-07-16T12:55:19;29.80;57.30
34873;DHT22;21084;51.098;14.506;2023-07-16T12:57:48;30.90;56.70
34873;DHT22;21084;51.098;14.506;2023-07-16T13:00:16;30.00;57.50
34873;DHT22;21084;51.098;14.506;2023-07-16T13:02:45;30.50;57.50
34873;DHT22;21084;51.098;14.506;2023-07-16T13:05:13;31.20;55.40
34873;DHT22;21084;51.098;14.506;2023-07-16T13:07:42;30.70;54.80
34873;DHT22;21084;51.098;14.506;2023-07-16T13:10:12;30.40;57.60
34873;DHT22;21084;51.098;14.506;2023-07-16T13:13:05;32.30;57.50
34873;DHT22;21084;51.098;14.506;2023-07-16T13:15:35;32.20;54.60
34873;DHT22;21084;51.098;14.506;2023-07-16T13:18:04;31.90;53.60
34873;DHT22;21084;51.098;14.506;2023-07-16T13:20:32;32.60;56.30
34873;DHT22;21084;51.098;14.506;2023-07-16T13:23:01;33.90;52.70
34873;DHT22;21084;51.098;14.506;2023-07-16T13:25:32;33.60;52.60
34873;DHT22;21084;51.098;14.506;2023-07-16T13:28:02;34.30;52.50
34873;DHT22;21084;51.098;14.506;2023-07-16T13:30:30;34.80;53.70
34873;DHT22;21084;51.098;14.506;2023-07-16T13:32:59;35.40;50.90
34873;DHT22;21084;51.098;14.506;2023-07-16T13:35:28;34.80;49.80
34873;DHT22;21084;51.098;14.506;2023-07-16T13:37:56;34.60;48.50
34873;DHT22;21084;51.098;14.506;2023-07-16T13:40:25;35.00;49.90
34873;DHT22;21084;51.098;14.506;2023-07-16T13:42:55;33.80;47.60
34873;DHT22;21084;51.098;14.506;2023-07-16T13:45:24;31.70;49.90
34873;DHT22;21084;51.098;14.506;2023-07-16T13:47:53;31.80;51.00
34873;DHT22;21084;51.098;14.506;2023-07-16T13:50:22;31.80;53.50
34873;DHT22;21084;51.098;14.506;2023-07-16T13:52:51;31.90;53.90
34873;DHT22;21084;51.098;14.506;2023-07-16T13:55:21;30.70;55.80
34873;DHT22;21084;51.098;14.506;2023-07-16T13:57:50;30.50;58.00
34873;DHT22;21084;51.098;14.506;2023-07-16T14:00:20;30.30;59.00
34873;DHT22;21084;51.098;14.506;2023-07-16T14:02:49;30.50;56.50
34873;DHT22;21084;51.098;14.506;2023-07-16T14:05:18;31.30;53.70
34873;DHT22;21084;51.098;14.506;2023-07-16T14:07:47;30.80;54.90
34873;DHT22;21084;51.098;14.506;2023-07-16T14:10:16;30.80;53.40
34873;DHT22;21084;51.098;14.506;2023-07-16T14:12:45;31.20;54.50
34873;DHT22;21084;51.098;14.506;2023-07-16T14:15:14;32.30;53.10
34873;DHT22;21084;51.098;14.506;2023-07-16T14:17:46;32.00;53.90
34873;DHT22;21084;51.098;14.506;2023-07-16T14:20:15;31.40;54.30
34873;DHT22;21084;51.098;14.506;2023-07-16T14:22:44;30.70;55.60
34873;DHT22;21084;51.098;14.506;2023-07-16T14:25:13;30.50;55.00
34873;DHT22;21084;51.098;14.506;2023-07-16T14:27:41;29.70;56.60
34873;DHT22;21084;51.098;14.506;2023-07-16T14:30:10;29.60;58.90
34873;DHT22;21084;51.098;14.506;2023-07-16T14:32:39;29.40;60.40
34873;DHT22;21084;51.098;14.506;2023-07-16T14:35:11;29.40;59.30
34873;DHT22;21084;51.098;14.506;2023-07-16T14:37:56;30.60;61.10
34873;DHT22;21084;51.098;14.506;2023-07-16T14:40:26;32.00;60.50
34873;DHT22;21084;51.098;14.506;2023-07-16T14:42:54;33.40;55.80
34873;DHT22;21084;51.098;14.506;2023-07-16T14:45:23;34.00;54.00
34873;DHT22;21084;51.098;14.506;2023-07-16T14:47:52;34.40;50.10
34873;DHT22;21084;51.098;14.506;2023-07-16T14:50:22;33.30;49.30
34873;DHT22;21084;51.098;14.506;2023-07-16T14:52:51;31.90;50.60
34873;DHT22;21084;51.098;14.506;2023-07-16T14:55:20;31.90;51.80
34873;DHT22;21084;51.098;14.506;2023-07-16T14:57:49;31.60;52.40
34873;DHT22;21084;51.098;14.506;2023-07-16T15:00:18;33.20;51.90
34873;DHT22;21084;51.098;14.506;2023-07-16T15:02:48;32.90;49.50
34873;DHT22;21084;51.098;14.506;2023-07-16T15:05:18;31.70;49.90
34873;DHT22;21084;51.098;14.506;2023-07-16T15:07:48;31.10;50.40
34873;DHT22;21084;51.098;14.506;2023-07-16T15:10:17;30.80;50.90
34873;DHT22;21084;51.098;14.506;2023-07-16T15:12:46;30.80;50.60
34873;DHT22;21084;51.098;14.506;2023-07-16T15:15:15;29.80;52.10
34873;DHT22;21084;51.098;14.506;2023-07-16T15:17:44;29.70;53.00
34873;DHT22;21084;51.098;14.506;2023-07-16T15:20:13;28.80;54.00
34873;DHT22;21084;51.098;14.506;2023-07-16T15:22:41;28.70;55.50
34873;DHT22;21084;51.098;14.506;2023-07-16T15:25:12;29.20;55.40
34873;DHT22;21084;51.098;14.506;2023-07-16T15:27:40;29.10;53.00
34873;DHT22;21084;51.098;14.506;2023-07-16T15:30:10;28.90;54.40